createdAt,value
2022-09-11T00:00:13.183Z,0.00
2022-09-11T00:01:13.158Z,0.00
2022-09-11T00:02:13.179Z,0.00
2022-09-11T00:03:13.149Z,0.00
2022-09-11T00:04:13.157Z,0.00
2022-09-11T00:05:13.108Z,0.00
2022-09-11T00:06:13.101Z,0.00
2022-09-11T00:07:13.119Z,0.00
2022-09-11T00:08:13.079Z,0.00
2022-09-11T00:09:13.071Z,0.00
2022-09-11T00:10:13.056Z,0.00
2022-09-11T00:11:13.042Z,0.00
2022-09-11T00:12:15.583Z,0.00
2022-09-11T00:13:13.049Z,0.00
2022-09-11T00:14:13.012Z,0.00
2022-09-11T00:15:13.004Z,0.00
2022-09-11T00:16:13.045Z,0.00
2022-09-11T00:17:13.122Z,0.00
2022-09-11T00:18:13.586Z,0.00
2022-09-11T00:19:12.984Z,0.00
2022-09-11T00:20:12.937Z,0.00
2022-09-11T00:21:12.960Z,0.00
2022-09-11T00:22:12.925Z,0.00
2022-09-11T00:23:12.920Z,0.00
2022-09-11T00:24:12.933Z,0.00
2022-09-11T00:25:12.922Z,0.00
2022-09-11T00:26:12.876Z,0.00
2022-09-11T00:27:12.874Z,0.00
2022-09-11T00:28:13.591Z,0.00
2022-09-11T00:29:12.846Z,0.00
2022-09-11T00:30:13.119Z,0.00
2022-09-11T00:31:12.838Z,0.00
2022-09-11T00:32:12.819Z,0.00
2022-09-11T00:33:12.812Z,0.00
2022-09-11T00:34:12.790Z,0.00
2022-09-11T00:35:13.615Z,0.00
2022-09-11T00:36:12.790Z,0.00
2022-09-11T00:37:12.761Z,0.00
2022-09-11T00:38:17.308Z,0.00
2022-09-11T00:39:13.593Z,0.00
2022-09-11T00:40:12.777Z,0.00
2022-09-11T00:41:12.720Z,0.00
2022-09-11T00:42:13.595Z,0.00
2022-09-11T00:43:12.688Z,0.00
2022-09-11T00:44:12.701Z,0.00
2022-09-11T00:45:12.686Z,0.00
2022-09-11T00:46:12.698Z,0.00
2022-09-11T00:47:12.659Z,0.00
2022-09-11T00:48:12.637Z,0.00
2022-09-11T00:49:12.671Z,0.00
2022-09-11T00:50:12.616Z,0.00
2022-09-11T00:51:12.621Z,0.00
2022-09-11T00:52:12.591Z,0.00
2022-09-11T00:53:27.088Z,0.00
2022-09-11T00:54:13.114Z,0.00
2022-09-11T00:55:12.584Z,0.00
2022-09-11T00:56:13.114Z,0.00
2022-09-11T00:57:12.532Z,0.00
2022-09-11T00:58:12.549Z,0.00
2022-09-11T00:59:12.515Z,0.00
2022-09-11T01:00:12.534Z,0.00
2022-09-11T01:01:12.541Z,0.00
2022-09-11T01:02:15.148Z,0.00
2022-09-11T01:03:12.470Z,0.00
2022-09-11T01:04:12.466Z,0.00
2022-09-11T01:05:12.450Z,0.00
2022-09-11T01:06:12.627Z,0.00
2022-09-11T01:07:12.439Z,0.00
2022-09-11T01:08:12.424Z,0.00
2022-09-11T01:09:12.404Z,0.00
2022-09-11T01:10:12.391Z,0.00
2022-09-11T01:11:12.380Z,0.00
2022-09-11T01:12:12.392Z,0.00
2022-09-11T01:13:12.359Z,0.00
2022-09-11T01:14:12.374Z,0.00
2022-09-11T01:15:12.337Z,0.00
2022-09-11T01:16:12.365Z,0.00
2022-09-11T01:17:12.631Z,0.00
2022-09-11T01:18:12.329Z,0.00
2022-09-11T01:19:12.635Z,0.00
2022-09-11T01:20:12.287Z,0.00
2022-09-11T01:21:12.281Z,0.00
2022-09-11T01:22:12.256Z,0.00
2022-09-11T01:23:19.118Z,0.00
2022-09-11T01:24:12.242Z,0.00
2022-09-11T01:25:12.253Z,0.00
2022-09-11T01:26:12.222Z,0.00
2022-09-11T01:27:12.232Z,0.00
2022-09-11T01:28:12.202Z,0.00
2022-09-11T01:29:12.193Z,0.00
2022-09-11T01:30:12.177Z,0.00
2022-09-11T01:31:12.198Z,0.00
2022-09-11T01:32:12.168Z,0.00
2022-09-11T01:33:13.108Z,0.00
2022-09-11T01:34:12.156Z,0.00
2022-09-11T01:35:13.106Z,0.00
2022-09-11T01:36:12.103Z,0.00
2022-09-11T01:37:12.601Z,0.00
2022-09-11T01:38:12.109Z,0.00
2022-09-11T01:39:12.114Z,0.00
2022-09-11T01:40:13.175Z,0.00
2022-09-11T01:41:12.598Z,0.00
2022-09-11T01:42:12.046Z,0.00
2022-09-11T01:43:12.083Z,0.00
2022-09-11T01:44:12.013Z,0.00
2022-09-11T01:45:12.026Z,0.00
2022-09-11T01:46:12.128Z,0.00
2022-09-11T01:47:14.605Z,0.00
2022-09-11T01:48:11.992Z,0.00
2022-09-11T01:49:11.970Z,0.00
2022-09-11T01:50:11.959Z,0.00
2022-09-11T01:51:11.965Z,0.00
2022-09-11T01:52:11.935Z,0.00
2022-09-11T01:53:14.602Z,0.00
2022-09-11T01:54:11.919Z,0.00
2022-09-11T01:55:11.928Z,0.00
2022-09-11T01:56:11.894Z,0.00
2022-09-11T01:57:11.899Z,0.00
2022-09-11T01:58:11.877Z,0.00
2022-09-11T01:59:11.854Z,0.00
2022-09-11T02:00:12.602Z,0.00
2022-09-11T02:01:11.900Z,0.00
2022-09-11T02:02:11.879Z,0.00
2022-09-11T02:03:11.825Z,0.00
2022-09-11T02:04:11.808Z,0.00
2022-09-11T02:05:11.789Z,0.00
2022-09-11T02:06:11.799Z,0.00
2022-09-11T02:07:18.601Z,0.00
2022-09-11T02:08:11.778Z,0.00
2022-09-11T02:09:14.596Z,0.00
2022-09-11T02:10:11.751Z,0.00
2022-09-11T02:11:11.738Z,0.00
2022-09-11T02:12:11.718Z,0.00
2022-09-11T02:13:11.719Z,0.00
2022-09-11T02:14:12.603Z,0.00
2022-09-11T02:15:11.681Z,0.00
2022-09-11T02:16:11.723Z,0.00
2022-09-11T02:17:12.606Z,0.00
2022-09-11T02:18:11.657Z,0.00
2022-09-11T02:19:12.139Z,0.00
2022-09-11T02:20:11.630Z,0.00
2022-09-11T02:21:12.633Z,0.00
2022-09-11T02:22:11.607Z,0.00
2022-09-11T02:23:11.591Z,0.00
2022-09-11T02:24:11.583Z,0.00
2022-09-11T02:25:11.596Z,0.00
2022-09-11T02:26:11.561Z,0.00
2022-09-11T02:27:11.582Z,0.00
2022-09-11T02:28:11.540Z,0.00
2022-09-11T02:29:18.108Z,0.00
2022-09-11T02:30:11.513Z,0.00
2022-09-11T02:31:11.556Z,0.00
2022-09-11T02:32:11.529Z,0.00
2022-09-11T02:33:11.498Z,0.00
2022-09-11T02:34:11.480Z,0.00
2022-09-11T02:35:11.486Z,0.00
2022-09-11T02:36:11.451Z,0.00
2022-09-11T02:37:11.472Z,0.00
2022-09-11T02:38:11.444Z,0.00
2022-09-11T02:39:11.424Z,0.00
2022-09-11T02:40:11.473Z,0.00
2022-09-11T02:41:11.637Z,0.00
2022-09-11T02:42:11.397Z,0.00
2022-09-11T02:43:11.380Z,0.00
2022-09-11T02:44:12.112Z,0.00
2022-09-11T02:45:11.355Z,0.00
2022-09-11T02:46:11.343Z,0.00
2022-09-11T02:47:12.110Z,0.00
2022-09-11T02:48:11.335Z,0.00
2022-09-11T02:49:11.298Z,0.00
2022-09-11T02:50:14.105Z,0.00
2022-09-11T02:51:11.290Z,0.00
2022-09-11T02:52:11.295Z,0.00
2022-09-11T02:53:11.284Z,0.00
2022-09-11T02:54:12.103Z,0.00
2022-09-11T02:55:11.235Z,0.00
2022-09-11T02:56:11.229Z,0.00
2022-09-11T02:57:11.234Z,0.00
2022-09-11T02:58:11.197Z,0.00
2022-09-11T02:59:11.237Z,0.00
2022-09-11T03:00:11.207Z,0.00
2022-09-11T03:01:11.238Z,0.00
2022-09-11T03:02:11.246Z,0.00
2022-09-11T03:03:11.158Z,0.00
2022-09-11T03:04:11.147Z,0.00
2022-09-11T03:05:11.650Z,0.00
2022-09-11T03:06:11.115Z,0.00
2022-09-11T03:07:11.107Z,0.00
2022-09-11T03:08:11.098Z,0.00
2022-09-11T03:09:11.103Z,0.00
2022-09-11T03:10:11.106Z,0.00
2022-09-11T03:11:11.068Z,0.00
2022-09-11T03:12:17.606Z,0.00
2022-09-11T03:13:11.040Z,0.00
2022-09-11T03:14:11.616Z,0.00
2022-09-11T03:15:11.052Z,0.00
2022-09-11T03:16:11.073Z,0.00
2022-09-11T03:17:11.012Z,0.00
2022-09-11T03:18:11.019Z,0.00
2022-09-11T03:19:10.970Z,0.00
2022-09-11T03:20:10.985Z,0.00
2022-09-11T03:21:10.973Z,0.00
2022-09-11T03:22:10.943Z,0.00
2022-09-11T03:23:10.934Z,0.00
2022-09-11T03:24:10.911Z,0.00
2022-09-11T03:25:10.944Z,0.00
2022-09-11T03:26:10.922Z,0.00
2022-09-11T03:27:10.889Z,0.00
2022-09-11T03:28:10.908Z,0.00
2022-09-11T03:29:10.864Z,0.00
2022-09-11T03:30:10.853Z,0.00
2022-09-11T03:31:10.919Z,0.00
2022-09-11T03:32:10.857Z,0.00
2022-09-11T03:33:10.846Z,0.00
2022-09-11T03:34:10.819Z,0.00
2022-09-11T03:35:10.797Z,0.00
2022-09-11T03:36:10.782Z,0.00
2022-09-11T03:37:10.791Z,0.00
2022-09-11T03:38:10.772Z,0.00
2022-09-11T03:39:10.773Z,0.00
2022-09-11T03:40:10.830Z,0.00
2022-09-11T03:41:10.726Z,0.00
2022-09-11T03:42:11.614Z,0.00
2022-09-11T03:43:10.724Z,0.00
2022-09-11T03:44:13.622Z,0.00
2022-09-11T03:45:12.639Z,0.00
2022-09-11T03:46:13.632Z,0.00
2022-09-11T03:47:10.662Z,0.00
2022-09-11T03:48:11.639Z,0.00
2022-09-11T03:49:10.655Z,0.00
2022-09-11T03:50:10.639Z,0.00
2022-09-11T03:51:10.629Z,0.00
2022-09-11T03:52:10.607Z,0.00
2022-09-11T03:53:10.634Z,0.00
2022-09-11T03:54:10.591Z,0.00
2022-09-11T03:55:10.653Z,0.00
2022-09-11T03:56:11.107Z,0.00
2022-09-11T03:57:10.563Z,0.00
2022-09-11T03:58:10.541Z,0.00
2022-09-11T03:59:10.531Z,0.00
2022-09-11T04:00:10.645Z,0.00
2022-09-11T04:01:10.549Z,0.00
2022-09-11T04:02:10.554Z,0.00
2022-09-11T04:03:10.504Z,0.00
2022-09-11T04:04:10.475Z,0.00
2022-09-11T04:05:10.474Z,0.00
2022-09-11T04:06:10.476Z,0.00
2022-09-11T04:07:10.452Z,0.00
2022-09-11T04:08:11.123Z,0.00
2022-09-11T04:09:10.428Z,0.00
2022-09-11T04:10:10.429Z,0.00
2022-09-11T04:11:10.422Z,0.00
2022-09-11T04:12:10.390Z,0.00
2022-09-11T04:13:10.379Z,0.00
2022-09-11T04:14:10.377Z,0.00
2022-09-11T04:15:13.106Z,0.00
2022-09-11T04:16:10.402Z,0.00
2022-09-11T04:17:10.358Z,0.00
2022-09-11T04:18:10.346Z,0.00
2022-09-11T04:19:11.607Z,0.00
2022-09-11T04:20:10.318Z,0.00
2022-09-11T04:21:10.289Z,0.00
2022-09-11T04:22:10.659Z,0.00
2022-09-11T04:23:10.280Z,0.00
2022-09-11T04:24:10.250Z,0.00
2022-09-11T04:25:13.119Z,0.00
2022-09-11T04:26:10.233Z,0.00
2022-09-11T04:27:10.251Z,0.00
2022-09-11T04:28:10.225Z,0.00
2022-09-11T04:29:10.222Z,0.00
2022-09-11T04:30:13.124Z,0.00
2022-09-11T04:31:11.189Z,0.00
2022-09-11T04:32:10.193Z,0.00
2022-09-11T04:33:10.155Z,4.00
2022-09-11T04:34:10.163Z,4.00
2022-09-11T04:35:10.138Z,0.00
2022-09-11T04:36:10.125Z,4.00
2022-09-11T04:37:10.136Z,4.00
2022-09-11T04:38:10.100Z,4.00
2022-09-11T04:39:10.098Z,4.00
2022-09-11T04:40:10.163Z,4.00
2022-09-11T04:41:10.063Z,8.00
2022-09-11T04:42:10.093Z,8.00
2022-09-11T04:43:10.048Z,12.00
2022-09-11T04:44:10.048Z,12.00
2022-09-11T04:45:10.028Z,12.00
2022-09-11T04:46:10.628Z,16.00
2022-09-11T04:47:10.010Z,20.00
2022-09-11T04:48:10.143Z,20.00
2022-09-11T04:49:10.153Z,24.00
2022-09-11T04:50:09.985Z,24.00
2022-09-11T04:51:09.969Z,28.00
2022-09-11T04:52:10.630Z,32.00
2022-09-11T04:53:09.957Z,32.00
2022-09-11T04:54:09.954Z,36.00
2022-09-11T04:55:09.931Z,44.00
2022-09-11T04:56:09.907Z,48.00
2022-09-11T04:57:09.891Z,56.00
2022-09-11T04:58:09.876Z,60.00
2022-09-11T04:59:10.169Z,68.00
2022-09-11T05:00:09.860Z,72.00
2022-09-11T05:01:09.893Z,76.00
2022-09-11T05:02:09.897Z,80.00
2022-09-11T05:03:09.821Z,88.00
2022-09-11T05:04:09.819Z,88.00
2022-09-11T05:05:09.829Z,96.00
2022-09-11T05:06:09.819Z,104.00
2022-09-11T05:07:09.783Z,120.00
2022-09-11T05:08:09.787Z,124.00
2022-09-11T05:09:09.760Z,136.00
2022-09-11T05:10:09.766Z,140.00
2022-09-11T05:11:09.737Z,144.00
2022-09-11T05:12:09.731Z,152.00
2022-09-11T05:13:10.654Z,156.00
2022-09-11T05:14:09.738Z,164.00
2022-09-11T05:15:10.623Z,176.00
2022-09-11T05:16:09.744Z,180.00
2022-09-11T05:17:09.674Z,188.00
2022-09-11T05:18:09.669Z,196.00
2022-09-11T05:19:09.662Z,204.00
2022-09-11T05:20:11.871Z,204.00
2022-09-11T05:21:09.644Z,212.00
2022-09-11T05:22:09.691Z,220.00
2022-09-11T05:23:12.116Z,232.00
2022-09-11T05:24:09.599Z,240.00
2022-09-11T05:25:09.575Z,256.00
2022-09-11T05:26:09.577Z,264.00
2022-09-11T05:27:09.578Z,276.00
2022-09-11T05:28:09.659Z,296.00
2022-09-11T05:29:09.536Z,320.00
2022-09-11T05:30:09.533Z,328.00
2022-09-11T05:31:09.519Z,328.00
2022-09-11T05:32:09.645Z,328.00
2022-09-11T05:33:09.497Z,340.00
2022-09-11T05:34:09.504Z,344.00
2022-09-11T05:35:09.472Z,348.00
2022-09-11T05:36:10.131Z,364.00
2022-09-11T05:37:09.455Z,380.00
2022-09-11T05:38:09.466Z,396.00
2022-09-11T05:39:09.453Z,420.00
2022-09-11T05:40:09.481Z,436.00
2022-09-11T05:41:09.407Z,452.00
2022-09-11T05:42:09.414Z,468.00
2022-09-11T05:43:09.383Z,460.00
2022-09-11T05:44:09.381Z,460.00
2022-09-11T05:45:09.362Z,492.00
2022-09-11T05:46:09.396Z,516.00
2022-09-11T05:47:09.366Z,528.00
2022-09-11T05:48:09.337Z,552.00
2022-09-11T05:49:09.658Z,556.00
2022-09-11T05:50:09.320Z,560.00
2022-09-11T05:51:09.296Z,580.00
2022-09-11T05:52:09.282Z,604.00
2022-09-11T05:53:09.276Z,612.00
2022-09-11T05:54:10.145Z,640.00
2022-09-11T05:55:09.461Z,644.00
2022-09-11T05:56:24.142Z,628.00
2022-09-11T05:57:09.227Z,624.00
2022-09-11T05:58:09.207Z,692.00
2022-09-11T05:59:09.213Z,756.00
2022-09-11T06:00:09.200Z,744.00
2022-09-11T06:01:09.307Z,800.00
2022-09-11T06:02:09.200Z,856.00
2022-09-11T06:03:11.496Z,860.00
2022-09-11T06:04:10.154Z,852.00
2022-09-11T06:05:09.148Z,820.00
2022-09-11T06:06:09.134Z,804.00
2022-09-11T06:07:09.124Z,780.00
2022-09-11T06:08:11.629Z,796.00
2022-09-11T06:09:09.107Z,828.00
2022-09-11T06:10:09.106Z,860.00
2022-09-11T06:11:09.076Z,892.00
2022-09-11T06:12:09.091Z,852.00
2022-09-11T06:13:09.050Z,844.00
2022-09-11T06:14:09.632Z,844.00
2022-09-11T06:15:20.331Z,904.00
2022-09-11T06:16:10.059Z,932.00
2022-09-11T06:17:09.028Z,900.00
2022-09-11T06:18:09.006Z,864.00
2022-09-11T06:19:09.004Z,872.00
2022-09-11T06:20:09.094Z,872.00
2022-09-11T06:21:08.982Z,852.00
2022-09-11T06:22:08.960Z,856.00
2022-09-11T06:23:09.485Z,904.00
2022-09-11T06:24:08.923Z,904.00
2022-09-11T06:25:08.945Z,852.00
2022-09-11T06:26:09.175Z,844.00
2022-09-11T06:27:08.923Z,844.00
2022-09-11T06:28:08.897Z,848.00
2022-09-11T06:29:09.154Z,932.00
2022-09-11T06:30:08.879Z,980.00
2022-09-11T06:31:09.629Z,988.00
2022-09-11T06:32:08.852Z,972.00
2022-09-11T06:33:08.838Z,968.00
2022-09-11T06:34:08.839Z,928.00
2022-09-11T06:35:09.178Z,932.00
2022-09-11T06:36:08.798Z,904.00
2022-09-11T06:37:08.799Z,880.00
2022-09-11T06:38:08.783Z,916.00
2022-09-11T06:39:08.806Z,924.00
2022-09-11T06:40:08.803Z,932.00
2022-09-11T06:41:09.628Z,920.00
2022-09-11T06:42:08.767Z,924.00
2022-09-11T06:43:09.635Z,920.00
2022-09-11T06:44:09.632Z,900.00
2022-09-11T06:45:08.846Z,888.00
2022-09-11T06:46:08.767Z,920.00
2022-09-11T06:47:08.682Z,980.00
2022-09-11T06:48:08.674Z,984.00
2022-09-11T06:49:08.657Z,964.00
2022-09-11T06:50:08.659Z,1008.00
2022-09-11T06:51:08.652Z,1016.00
2022-09-11T06:52:15.126Z,1024.00
2022-09-11T06:53:08.617Z,1024.00
2022-09-11T06:54:08.603Z,1052.00
2022-09-11T06:55:08.600Z,1060.00
2022-09-11T06:56:08.585Z,1100.00
2022-09-11T06:57:08.662Z,1120.00
2022-09-11T06:58:09.144Z,1128.00
2022-09-11T06:59:08.579Z,1148.00
2022-09-11T07:00:08.534Z,1112.00
2022-09-11T07:01:09.265Z,1112.00
2022-09-11T07:02:08.661Z,1124.00
2022-09-11T07:03:08.508Z,1104.00
2022-09-11T07:04:08.503Z,1056.00
2022-09-11T07:05:08.500Z,1064.00
2022-09-11T07:06:08.484Z,1068.00
2022-09-11T07:07:08.486Z,1072.00
2022-09-11T07:08:08.459Z,1100.00
2022-09-11T07:09:08.434Z,1128.00
2022-09-11T07:10:08.430Z,1084.00
2022-09-11T07:11:08.417Z,1060.00
2022-09-11T07:12:08.436Z,1064.00
2022-09-11T07:13:08.414Z,1128.00
2022-09-11T07:14:08.408Z,1196.00
2022-09-11T07:15:08.375Z,1224.00
2022-09-11T07:16:08.448Z,1196.00
2022-09-11T07:17:08.349Z,1232.00
2022-09-11T07:18:08.365Z,1192.00
2022-09-11T07:19:08.337Z,1140.00
2022-09-11T07:20:08.325Z,1108.00
2022-09-11T07:21:08.304Z,1096.00
2022-09-11T07:22:08.313Z,1144.00
2022-09-11T07:23:08.296Z,1160.00
2022-09-11T07:24:08.297Z,1188.00
2022-09-11T07:25:08.261Z,1212.00
2022-09-11T07:26:08.252Z,1144.00
2022-09-11T07:27:08.238Z,1116.00
2022-09-11T07:28:08.253Z,1108.00
2022-09-11T07:29:08.215Z,1136.00
2022-09-11T07:30:08.229Z,1172.00
2022-09-11T07:31:08.239Z,1244.00
2022-09-11T07:32:08.188Z,1348.00
2022-09-11T07:33:08.172Z,1320.00
2022-09-11T07:34:08.160Z,1300.00
2022-09-11T07:35:08.161Z,1252.00
2022-09-11T07:36:08.169Z,1276.00
2022-09-11T07:37:08.131Z,1300.00
2022-09-11T07:38:08.109Z,1280.00
2022-09-11T07:39:08.174Z,1300.00
2022-09-11T07:40:08.114Z,1336.00
2022-09-11T07:41:08.141Z,1324.00
2022-09-11T07:42:08.068Z,1384.00
2022-09-11T07:43:08.072Z,1444.00
2022-09-11T07:44:08.046Z,1460.00
2022-09-11T07:45:08.047Z,1528.00
2022-09-11T07:46:08.158Z,1588.00
2022-09-11T07:47:08.032Z,1592.00
2022-09-11T07:48:10.641Z,1752.00
2022-09-11T07:49:07.984Z,1812.00
2022-09-11T07:50:07.971Z,1992.00
2022-09-11T07:51:07.973Z,2152.00
2022-09-11T07:52:07.979Z,2352.00
2022-09-11T07:53:07.979Z,2148.00
2022-09-11T07:54:07.939Z,1972.00
2022-09-11T07:55:07.920Z,1760.00
2022-09-11T07:56:07.918Z,1720.00
2022-09-11T07:57:07.898Z,1728.00
2022-09-11T07:58:07.895Z,1728.00
2022-09-11T07:59:07.895Z,1728.00
2022-09-11T08:00:07.873Z,1804.00
2022-09-11T08:01:07.890Z,1840.00
2022-09-11T08:02:08.020Z,1800.00
2022-09-11T08:03:07.857Z,1728.00
2022-09-11T08:04:07.814Z,1728.00
2022-09-11T08:05:10.648Z,1712.00
2022-09-11T08:06:07.797Z,1760.00
2022-09-11T08:07:07.799Z,1784.00
2022-09-11T08:08:07.775Z,1800.00
2022-09-11T08:09:07.787Z,1916.00
2022-09-11T08:10:26.133Z,2076.00
2022-09-11T08:11:08.754Z,2228.00
2022-09-11T08:12:07.740Z,2272.00
2022-09-11T08:13:09.518Z,2148.00
2022-09-11T08:14:07.727Z,2096.00
2022-09-11T08:15:07.698Z,2112.00
2022-09-11T08:16:07.721Z,2200.00
2022-09-11T08:17:07.669Z,2356.00
2022-09-11T08:18:07.716Z,2476.00
2022-09-11T08:19:07.679Z,2396.00
2022-09-11T08:20:07.645Z,2320.00
2022-09-11T08:21:12.118Z,2296.00
2022-09-11T08:22:08.635Z,2224.00
2022-09-11T08:23:07.628Z,2128.00
2022-09-11T08:24:07.596Z,2056.00
2022-09-11T08:25:07.601Z,2044.00
2022-09-11T08:26:07.591Z,2000.00
2022-09-11T08:27:07.564Z,2004.00
2022-09-11T08:28:07.568Z,2024.00
2022-09-11T08:29:07.534Z,1996.00
2022-09-11T08:30:07.551Z,1920.00
2022-09-11T08:31:07.558Z,1840.00
2022-09-11T08:32:07.509Z,1804.00
2022-09-11T08:33:07.485Z,1812.00
2022-09-11T08:34:07.499Z,1808.00
2022-09-11T08:35:07.491Z,1784.00
2022-09-11T08:36:07.485Z,1788.00
2022-09-11T08:37:07.463Z,1812.00
2022-09-11T08:38:07.442Z,1828.00
2022-09-11T08:39:07.437Z,1820.00
2022-09-11T08:40:07.493Z,1800.00
2022-09-11T08:41:07.419Z,1776.00
2022-09-11T08:42:07.447Z,1776.00
2022-09-11T08:43:07.379Z,1752.00
2022-09-11T08:44:07.374Z,1696.00
2022-09-11T08:45:07.350Z,1608.00
2022-09-11T08:46:07.420Z,1568.00
2022-09-11T08:47:07.354Z,1484.00
2022-09-11T08:48:07.331Z,1408.00
2022-09-11T08:49:07.313Z,1484.00
2022-09-11T08:50:07.337Z,1544.00
2022-09-11T08:51:07.305Z,1596.00
2022-09-11T08:52:07.300Z,1612.00
2022-09-11T08:53:10.965Z,1564.00
2022-09-11T08:54:08.285Z,1600.00
2022-09-11T08:55:07.265Z,1672.00
2022-09-11T08:56:07.262Z,1684.00
2022-09-11T08:57:07.243Z,1676.00
2022-09-11T08:58:07.214Z,1744.00
2022-09-11T08:59:07.194Z,1980.00
2022-09-11T09:00:07.218Z,2160.00
2022-09-11T09:01:07.251Z,2192.00
2022-09-11T09:02:07.201Z,2196.00
2022-09-11T09:03:07.195Z,2196.00
2022-09-11T09:04:07.141Z,2232.00
2022-09-11T09:05:07.139Z,2380.00
2022-09-11T09:06:07.136Z,2548.00
2022-09-11T09:07:07.134Z,2588.00
2022-09-11T09:08:07.121Z,2608.00
2022-09-11T09:09:07.104Z,2580.00
2022-09-11T09:10:07.082Z,2444.00
2022-09-11T09:11:07.079Z,2340.00
2022-09-11T09:12:07.064Z,2268.00
2022-09-11T09:13:07.040Z,2164.00
2022-09-11T09:14:07.038Z,2060.00
2022-09-11T09:15:07.018Z,2040.00
2022-09-11T09:16:07.731Z,2028.00
2022-09-11T09:17:07.008Z,1996.00
2022-09-11T09:18:07.025Z,1932.00
2022-09-11T09:19:07.660Z,1976.00
2022-09-11T09:20:06.970Z,2084.00
2022-09-11T09:21:09.661Z,2184.00
2022-09-11T09:22:06.942Z,2240.00
2022-09-11T09:23:07.652Z,2156.00
2022-09-11T09:24:06.955Z,2016.00
2022-09-11T09:25:06.908Z,2008.00
2022-09-11T09:26:06.903Z,2172.00
2022-09-11T09:27:06.933Z,2300.00
2022-09-11T09:28:06.870Z,2388.00
2022-09-11T09:29:06.866Z,2504.00
2022-09-11T09:30:06.849Z,2616.00
2022-09-11T09:31:06.902Z,2652.00
2022-09-11T09:32:06.830Z,2748.00
2022-09-11T09:33:10.253Z,2888.00
2022-09-11T09:34:07.803Z,2964.00
2022-09-11T09:35:06.819Z,3084.00
2022-09-11T09:36:06.788Z,3116.00
2022-09-11T09:37:06.804Z,3072.00
2022-09-11T09:38:06.765Z,3092.00
2022-09-11T09:39:06.774Z,3204.00
2022-09-11T09:40:06.772Z,3364.00
2022-09-11T09:41:06.728Z,3772.00
2022-09-11T09:42:06.729Z,3900.00
2022-09-11T09:43:06.710Z,4284.00
2022-09-11T09:44:06.740Z,4616.00
2022-09-11T09:45:06.682Z,4732.00
2022-09-11T09:46:07.712Z,5292.00
2022-09-11T09:47:06.660Z,5612.00
2022-09-11T09:48:06.657Z,5520.00
2022-09-11T09:49:06.673Z,5220.00
2022-09-11T09:50:06.632Z,4696.00
2022-09-11T09:51:06.627Z,4800.00
2022-09-11T09:52:06.622Z,4996.00
2022-09-11T09:53:06.616Z,4788.00
2022-09-11T09:54:06.597Z,5020.00
2022-09-11T09:55:06.567Z,5120.00
2022-09-11T09:56:06.572Z,5252.00
2022-09-11T09:57:06.551Z,5376.00
2022-09-11T09:58:06.556Z,5496.00
2022-09-11T09:59:06.537Z,5432.00
2022-09-11T10:00:06.526Z,5528.00
2022-09-11T10:01:06.565Z,5624.00
2022-09-11T10:02:06.610Z,5688.00
2022-09-11T10:03:06.478Z,5724.00
2022-09-11T10:04:06.504Z,5804.00
2022-09-11T10:05:07.158Z,5828.00
2022-09-11T10:06:06.456Z,5896.00
2022-09-11T10:07:06.424Z,6092.00
2022-09-11T10:08:06.438Z,6080.00
2022-09-11T10:09:06.422Z,5948.00
2022-09-11T10:10:06.431Z,5612.00
2022-09-11T10:11:06.405Z,5436.00
2022-09-11T10:12:06.383Z,5548.00
2022-09-11T10:13:19.079Z,5488.00
2022-09-11T10:14:11.819Z,5764.00
2022-09-11T10:15:07.559Z,5980.00
2022-09-11T10:16:06.488Z,6004.00
2022-09-11T10:17:06.347Z,5848.00
2022-09-11T10:18:06.309Z,5636.00
2022-09-11T10:19:06.312Z,5860.00
2022-09-11T10:20:06.296Z,6000.00
2022-09-11T10:21:08.514Z,5988.00
2022-09-11T10:22:06.268Z,5548.00
2022-09-11T10:23:06.258Z,5224.00
2022-09-11T10:24:06.247Z,5676.00
2022-09-11T10:25:06.296Z,5936.00
2022-09-11T10:26:06.233Z,5676.00
2022-09-11T10:27:06.206Z,5624.00
2022-09-11T10:28:06.206Z,5916.00
2022-09-11T10:29:06.204Z,6056.00
2022-09-11T10:30:06.188Z,6092.00
2022-09-11T10:31:06.224Z,5944.00
2022-09-11T10:32:06.157Z,5568.00
2022-09-11T10:33:06.164Z,5376.00
2022-09-11T10:34:06.146Z,5816.00
2022-09-11T10:35:06.134Z,6636.00
2022-09-11T10:36:06.146Z,6368.00
2022-09-11T10:37:06.105Z,5660.00
2022-09-11T10:38:06.097Z,5432.00
2022-09-11T10:39:06.080Z,5424.00
2022-09-11T10:40:06.153Z,6144.00
2022-09-11T10:41:06.086Z,7012.00
2022-09-11T10:42:06.069Z,7264.00
2022-09-11T10:43:06.060Z,7332.00
2022-09-11T10:44:06.018Z,7984.00
2022-09-11T10:45:06.016Z,8392.00
2022-09-11T10:46:06.051Z,7692.00
2022-09-11T10:47:06.094Z,6464.00
2022-09-11T10:48:06.000Z,5568.00
2022-09-11T10:49:05.976Z,5100.00
2022-09-11T10:50:05.979Z,4744.00
2022-09-11T10:51:05.949Z,4340.00
2022-09-11T10:52:06.991Z,4204.00
2022-09-11T10:53:05.933Z,4236.00
2022-09-11T10:54:05.942Z,4220.00
2022-09-11T10:55:05.905Z,4212.00
2022-09-11T10:56:05.923Z,4416.00
2022-09-11T10:57:05.959Z,4468.00
2022-09-11T10:58:05.885Z,4628.00
2022-09-11T10:59:05.863Z,4912.00
2022-09-11T11:00:05.877Z,4928.00
2022-09-11T11:01:05.891Z,4904.00
2022-09-11T11:02:05.892Z,4872.00
2022-09-11T11:03:05.818Z,4776.00
2022-09-11T11:04:10.404Z,4624.00
2022-09-11T11:05:06.818Z,4500.00
2022-09-11T11:06:05.817Z,4484.00
2022-09-11T11:07:05.824Z,4536.00
2022-09-11T11:08:05.800Z,4520.00
2022-09-11T11:09:05.803Z,4456.00
2022-09-11T11:10:05.769Z,4380.00
2022-09-11T11:11:05.767Z,4520.00
2022-09-11T11:12:05.726Z,4100.00
2022-09-11T11:13:05.743Z,4200.00
2022-09-11T11:14:05.705Z,4668.00
2022-09-11T11:15:05.696Z,4300.00
2022-09-11T11:16:05.721Z,4320.00
2022-09-11T11:17:05.758Z,4460.00
2022-09-11T11:18:05.662Z,4576.00
2022-09-11T11:19:05.648Z,4664.00
2022-09-11T11:20:05.662Z,4736.00
2022-09-11T11:21:05.639Z,4976.00
2022-09-11T11:22:05.636Z,5388.00
2022-09-11T11:23:05.609Z,5672.00
2022-09-11T11:24:05.600Z,5172.00
2022-09-11T11:25:05.606Z,4940.00
2022-09-11T11:26:05.575Z,5200.00
2022-09-11T11:27:05.565Z,5548.00
2022-09-11T11:28:05.541Z,5924.00
2022-09-11T11:29:05.560Z,6372.00
2022-09-11T11:30:05.543Z,6396.00
2022-09-11T11:31:05.553Z,6460.00
2022-09-11T11:32:06.169Z,5792.00
2022-09-11T11:33:05.491Z,4732.00
2022-09-11T11:34:05.490Z,4080.00
2022-09-11T11:35:05.471Z,3824.00
2022-09-11T11:36:05.476Z,3680.00
2022-09-11T11:37:05.448Z,3540.00
2022-09-11T11:38:05.438Z,3288.00
2022-09-11T11:39:05.436Z,3344.00
2022-09-11T11:40:06.285Z,3128.00
2022-09-11T11:41:05.421Z,3136.00
2022-09-11T11:42:05.384Z,3192.00
2022-09-11T11:43:05.376Z,3228.00
2022-09-11T11:44:05.369Z,3684.00
2022-09-11T11:45:05.371Z,4428.00
2022-09-11T11:46:05.382Z,3816.00
2022-09-11T11:47:05.355Z,3756.00
2022-09-11T11:48:05.359Z,3712.00
2022-09-11T11:49:05.310Z,5152.00
2022-09-11T11:50:05.292Z,4828.00
2022-09-11T11:51:05.282Z,3492.00
2022-09-11T11:52:05.276Z,4644.00
2022-09-11T11:53:05.294Z,4932.00
2022-09-11T11:54:05.255Z,3760.00
2022-09-11T11:55:05.244Z,2836.00
2022-09-11T11:56:05.234Z,2764.00
2022-09-11T11:57:05.233Z,3208.00
2022-09-11T11:58:05.203Z,4944.00
2022-09-11T11:59:05.217Z,5012.00
2022-09-11T12:00:05.188Z,5184.00
2022-09-11T12:01:05.190Z,5288.00
2022-09-11T12:02:05.216Z,5380.00
2022-09-11T12:03:05.143Z,5432.00
2022-09-11T12:04:05.159Z,5668.00
2022-09-11T12:05:05.150Z,5720.00
2022-09-11T12:06:05.113Z,5512.00
2022-09-11T12:07:07.679Z,5376.00
2022-09-11T12:08:05.129Z,5488.00
2022-09-11T12:09:05.098Z,4784.00
2022-09-11T12:10:05.092Z,5292.00
2022-09-11T12:11:05.059Z,6104.00
2022-09-11T12:12:05.056Z,3912.00
2022-09-11T12:13:05.030Z,3968.00
2022-09-11T12:14:05.031Z,4100.00
2022-09-11T12:15:05.044Z,4936.00
2022-09-11T12:16:07.354Z,6524.00
2022-09-11T12:17:06.033Z,6328.00
2022-09-11T12:18:04.984Z,6300.00
2022-09-11T12:19:05.995Z,6936.00
2022-09-11T12:20:04.956Z,7004.00
2022-09-11T12:21:04.956Z,7068.00
2022-09-11T12:22:04.942Z,6852.00
2022-09-11T12:23:04.952Z,5844.00
2022-09-11T12:24:04.937Z,6224.00
2022-09-11T12:25:04.904Z,6500.00
2022-09-11T12:26:04.920Z,6448.00
2022-09-11T12:27:07.771Z,6060.00
2022-09-11T12:28:05.897Z,6268.00
2022-09-11T12:29:04.855Z,4476.00
2022-09-11T12:30:04.857Z,6296.00
2022-09-11T12:31:04.866Z,6336.00
2022-09-11T12:32:04.847Z,6504.00
2022-09-11T12:33:04.852Z,6584.00
2022-09-11T12:34:04.810Z,6556.00
2022-09-11T12:35:04.793Z,3664.00
2022-09-11T12:36:11.687Z,5724.00